createdAt,value
2018-08-06T00:00:15.248Z,3.80
2018-08-06T00:02:43.532Z,3.30
2018-08-06T00:05:11.992Z,4.03
2018-08-06T00:07:40.298Z,4.07
2018-08-06T00:10:11.917Z,3.47
2018-08-06T00:12:40.475Z,2.67
2018-08-06T00:15:09.813Z,2.97
2018-08-06T00:17:38.282Z,3.13
2018-08-06T00:20:07.311Z,3.30
2018-08-06T00:22:35.595Z,3.30
2018-08-06T00:25:04.474Z,3.17
2018-08-06T00:27:33.241Z,3.30
2018-08-06T00:30:01.555Z,2.90
2018-08-06T00:32:29.845Z,3.40
2018-08-06T00:34:58.141Z,3.40
2018-08-06T00:37:26.462Z,2.90
2018-08-06T00:39:54.811Z,3.40
2018-08-06T00:42:23.136Z,4.20
2018-08-06T00:44:51.439Z,3.03
2018-08-06T00:47:19.758Z,3.13
2018-08-06T00:49:48.089Z,3.30
2018-08-06T00:52:16.098Z,3.17
2018-08-06T00:54:44.383Z,3.37
2018-08-06T00:57:12.712Z,2.90
2018-08-06T00:59:41.014Z,3.20
2018-08-06T01:02:09.368Z,2.90
2018-08-06T01:04:38.234Z,3.13
2018-08-06T01:07:06.573Z,3.00
2018-08-06T01:09:34.866Z,4.30
2018-08-06T01:12:03.189Z,3.37
2018-08-06T01:14:31.235Z,3.03
2018-08-06T01:16:59.490Z,3.00
2018-08-06T01:19:27.784Z,3.83
2018-08-06T01:21:56.055Z,3.00
2018-08-06T01:24:24.354Z,3.53
2018-08-06T01:26:52.354Z,3.23
2018-08-06T01:29:20.650Z,3.27
2018-08-06T01:31:48.931Z,3.60
2018-08-06T01:34:17.253Z,3.20
2018-08-06T01:36:45.530Z,3.50
2018-08-06T01:39:14.387Z,3.30
2018-08-06T01:41:42.700Z,3.13
2018-08-06T01:44:11.016Z,3.10
2018-08-06T01:46:39.457Z,3.00
2018-08-06T01:49:07.759Z,2.93
2018-08-06T01:51:36.031Z,3.20
2018-08-06T01:54:04.330Z,3.33
2018-08-06T01:56:32.646Z,3.30
2018-08-06T01:59:00.938Z,3.43
2018-08-06T02:01:29.229Z,3.00
2018-08-06T02:03:57.529Z,3.17
2018-08-06T02:06:25.821Z,2.70
2018-08-06T02:08:54.135Z,3.03
2018-08-06T02:11:22.416Z,2.63
2018-08-06T02:13:50.703Z,2.73
2018-08-06T02:16:18.990Z,3.17
2018-08-06T02:18:47.321Z,2.97
2018-08-06T02:21:15.644Z,3.20
2018-08-06T02:23:43.922Z,3.80
2018-08-06T02:26:12.199Z,2.87
2018-08-06T02:28:40.502Z,2.80
2018-08-06T02:31:08.802Z,3.07
2018-08-06T02:33:37.095Z,2.80
2018-08-06T02:36:05.405Z,3.37
2018-08-06T02:38:33.704Z,2.80
2018-08-06T02:41:02.043Z,3.10
2018-08-06T02:43:30.375Z,2.67
2018-08-06T02:45:58.684Z,3.33
2018-08-06T02:48:26.983Z,2.77
2018-08-06T02:50:55.226Z,2.77
2018-08-06T02:53:23.510Z,2.40
2018-08-06T02:55:51.791Z,2.90
2018-08-06T02:58:20.064Z,2.90
2018-08-06T03:00:48.422Z,2.93
2018-08-06T03:03:17.554Z,3.30
2018-08-06T03:05:45.880Z,3.10
2018-08-06T03:08:14.161Z,3.20
2018-08-06T03:10:42.431Z,3.03
2018-08-06T03:13:10.690Z,2.70
2018-08-06T03:15:38.982Z,3.50
2018-08-06T03:18:07.266Z,2.73
2018-08-06T03:20:35.621Z,2.80
2018-08-06T03:23:03.978Z,2.60
2018-08-06T03:25:32.300Z,2.80
2018-08-06T03:28:00.571Z,2.87
2018-08-06T03:30:28.869Z,3.27
2018-08-06T03:32:57.174Z,3.30
2018-08-06T03:35:25.468Z,3.50
2018-08-06T03:37:53.774Z,3.10
2018-08-06T03:40:22.099Z,2.93
2018-08-06T03:42:50.348Z,3.13
2018-08-06T03:45:18.606Z,2.67
2018-08-06T03:47:46.877Z,3.07
2018-08-06T03:50:15.186Z,3.20
2018-08-06T03:52:43.843Z,3.27
2018-08-06T03:55:12.438Z,2.90
2018-08-06T03:57:41.219Z,2.80
2018-08-06T04:00:11.476Z,3.07
2018-08-06T04:02:40.172Z,2.97
2018-08-06T04:05:10.038Z,3.23
2018-08-06T04:07:38.745Z,2.97
2018-08-06T04:10:08.340Z,2.93
2018-08-06T04:12:36.608Z,2.80
2018-08-06T04:15:05.913Z,3.37
2018-08-06T04:17:34.190Z,3.07
2018-08-06T04:20:02.464Z,2.60
2018-08-06T04:22:30.745Z,3.20
2018-08-06T04:24:59.023Z,4.93
2018-08-06T04:27:27.300Z,2.87
2018-08-06T04:29:55.590Z,3.10
2018-08-06T04:32:23.882Z,3.50
2018-08-06T04:34:52.145Z,2.87
2018-08-06T04:37:20.413Z,2.93
2018-08-06T04:39:48.706Z,3.10
2018-08-06T04:42:17.019Z,3.13
2018-08-06T04:44:45.322Z,3.10
2018-08-06T04:47:13.625Z,3.13
2018-08-06T04:49:41.925Z,3.00
2018-08-06T04:52:10.218Z,3.33
2018-08-06T04:54:38.553Z,3.30
2018-08-06T04:57:06.828Z,2.83
2018-08-06T04:59:37.278Z,2.80
2018-08-06T05:02:05.661Z,3.10
2018-08-06T05:04:34.025Z,2.80
2018-08-06T05:07:02.422Z,2.50
2018-08-06T05:09:41.823Z,2.93
2018-08-06T05:12:10.109Z,2.60
2018-08-06T05:14:39.579Z,2.70
2018-08-06T05:17:08.091Z,3.10
2018-08-06T05:19:37.163Z,3.03
2018-08-06T05:22:05.982Z,3.20
2018-08-06T05:24:34.331Z,2.80
2018-08-06T05:27:02.659Z,3.00
2018-08-06T05:29:30.969Z,2.80
2018-08-06T05:31:59.243Z,2.80
2018-08-06T05:34:27.613Z,2.80
2018-08-06T05:36:55.906Z,2.97
2018-08-06T05:39:24.212Z,3.00
2018-08-06T05:41:52.535Z,3.10
2018-08-06T05:44:20.879Z,2.70
2018-08-06T05:46:49.282Z,2.70
2018-08-06T05:49:17.605Z,2.60
2018-08-06T05:51:45.881Z,2.83
2018-08-06T05:54:14.207Z,2.87
2018-08-06T05:56:42.542Z,2.73
2018-08-06T05:59:10.899Z,3.00
2018-08-06T06:01:39.257Z,2.50
2018-08-06T06:04:07.560Z,2.40
2018-08-06T06:06:35.893Z,2.57
2018-08-06T06:09:06.294Z,2.73
2018-08-06T06:11:34.616Z,2.63
2018-08-06T06:14:02.932Z,2.47
2018-08-06T06:16:31.193Z,2.33
2018-08-06T06:18:59.503Z,2.07
2018-08-06T06:21:27.863Z,2.63
2018-08-06T06:23:56.160Z,2.40
2018-08-06T06:26:24.511Z,2.23
2018-08-06T06:28:52.885Z,2.07
2018-08-06T06:31:22.270Z,2.70
2018-08-06T06:33:50.582Z,2.23
2018-08-06T06:36:18.879Z,2.67
2018-08-06T06:38:47.369Z,2.83
2018-08-06T06:41:15.702Z,2.70
2018-08-06T06:43:44.061Z,2.67
2018-08-06T06:46:12.087Z,2.70
2018-08-06T06:48:40.391Z,2.87
2018-08-06T06:51:08.716Z,3.00
2018-08-06T06:53:37.032Z,3.30
2018-08-06T06:56:05.498Z,3.23
2018-08-06T06:58:33.780Z,3.33
2018-08-06T07:01:02.085Z,3.17
2018-08-06T07:03:30.420Z,3.17
2018-08-06T07:05:58.726Z,3.33
2018-08-06T07:08:27.042Z,3.43
2018-08-06T07:10:55.388Z,2.80
2018-08-06T07:13:23.904Z,2.90
2018-08-06T07:15:52.265Z,3.00
2018-08-06T07:18:20.302Z,3.50
2018-08-06T07:20:48.656Z,2.73
2018-08-06T07:23:16.981Z,3.93
2018-08-06T07:25:45.327Z,2.83
2018-08-06T07:28:13.626Z,3.00
2018-08-06T07:30:41.955Z,3.03
2018-08-06T07:33:11.471Z,2.63
2018-08-06T07:35:39.749Z,3.43
2018-08-06T07:38:08.032Z,3.43
2018-08-06T07:40:36.316Z,3.73
2018-08-06T07:43:04.642Z,3.53
2018-08-06T07:45:32.968Z,3.20
2018-08-06T07:48:01.347Z,3.07
2018-08-06T07:50:29.358Z,2.50
2018-08-06T07:52:57.645Z,2.93
2018-08-06T07:55:25.957Z,3.17
2018-08-06T07:57:54.277Z,3.57
2018-08-06T08:00:22.691Z,3.67
2018-08-06T08:02:51.002Z,3.10
2018-08-06T08:05:19.684Z,2.87
2018-08-06T08:07:48.566Z,3.03
2018-08-06T08:10:19.635Z,3.27
2018-08-06T08:12:47.924Z,3.40
2018-08-06T08:15:18.928Z,2.87
2018-08-06T08:17:47.469Z,3.07
2018-08-06T08:20:25.427Z,3.17
2018-08-06T08:22:53.790Z,3.00
2018-08-06T08:25:23.098Z,2.87
2018-08-06T08:27:51.487Z,3.50
2018-08-06T08:30:24.536Z,2.93
2018-08-06T08:32:57.754Z,3.80
2018-08-06T08:35:32.016Z,3.70
2018-08-06T08:38:01.884Z,3.03
2018-08-06T08:40:30.829Z,3.00
2018-08-06T08:42:59.142Z,3.10
2018-08-06T08:45:27.584Z,3.60
2018-08-06T08:47:55.880Z,3.37
2018-08-06T08:50:24.189Z,3.50
2018-08-06T08:52:52.570Z,3.23
2018-08-06T08:55:21.055Z,3.43
2018-08-06T08:57:49.369Z,3.20
2018-08-06T09:00:20.600Z,2.97
2018-08-06T09:02:49.722Z,3.23
2018-08-06T09:05:18.610Z,3.40
2018-08-06T09:07:47.308Z,3.50
2018-08-06T09:10:16.476Z,3.10
2018-08-06T09:12:44.917Z,3.60
2018-08-06T09:15:19.675Z,3.20
2018-08-06T09:17:48.020Z,3.50
2018-08-06T09:20:16.345Z,3.70
2018-08-06T09:22:45.201Z,3.10
2018-08-06T09:25:14.118Z,3.47
2018-08-06T09:27:43.808Z,3.13
2018-08-06T09:30:15.320Z,3.70
2018-08-06T09:32:44.905Z,3.00
2018-08-06T09:35:14.067Z,3.10
2018-08-06T09:37:42.505Z,3.40
2018-08-06T09:40:12.927Z,3.57
2018-08-06T09:42:41.757Z,3.23
2018-08-06T09:45:11.893Z,3.27
2018-08-06T09:47:41.066Z,3.63
2018-08-06T09:50:10.825Z,3.57
2018-08-06T09:52:39.324Z,3.20
2018-08-06T09:55:11.630Z,3.40
2018-08-06T09:57:40.058Z,3.30
2018-08-06T10:00:15.001Z,3.20
2018-08-06T10:02:43.336Z,3.53
2018-08-06T10:05:11.633Z,3.10
2018-08-06T10:07:39.952Z,3.53
2018-08-06T10:10:10.629Z,3.27
2018-08-06T10:12:39.050Z,3.27
2018-08-06T10:15:08.102Z,3.27
2018-08-06T10:17:36.511Z,3.53
2018-08-06T10:20:06.555Z,3.07
2018-08-06T10:22:34.893Z,3.37
2018-08-06T10:25:03.248Z,2.90
2018-08-06T10:27:31.589Z,3.33
2018-08-06T10:30:00.123Z,3.20
2018-08-06T10:32:28.510Z,3.43
2018-08-06T10:34:56.821Z,3.40
2018-08-06T10:37:25.246Z,3.30
2018-08-06T10:39:53.533Z,3.70
2018-08-06T10:42:21.906Z,3.50
2018-08-06T10:44:50.203Z,3.53
2018-08-06T10:47:18.576Z,3.23
2018-08-06T10:49:46.918Z,3.10
2018-08-06T10:52:15.230Z,3.20
2018-08-06T10:54:43.710Z,3.50
2018-08-06T10:57:12.150Z,3.60
2018-08-06T10:59:40.758Z,3.53
2018-08-06T11:02:09.104Z,3.47
2018-08-06T11:04:37.421Z,3.47
2018-08-06T11:07:05.795Z,3.50
2018-08-06T11:09:34.127Z,3.93
2018-08-06T11:12:02.189Z,3.73
2018-08-06T11:14:30.681Z,4.47
2018-08-06T11:16:59.042Z,3.70
2018-08-06T11:19:27.681Z,3.90
2018-08-06T11:21:56.192Z,4.50
2018-08-06T11:24:24.540Z,3.40
2018-08-06T11:26:52.852Z,3.67
2018-08-06T11:29:21.256Z,3.70
2018-08-06T11:31:49.590Z,3.40
2018-08-06T11:34:17.954Z,3.60
2018-08-06T11:36:46.336Z,3.80
2018-08-06T11:39:14.626Z,4.10
2018-08-06T11:41:42.987Z,4.10
2018-08-06T11:44:11.383Z,3.27
2018-08-06T11:46:39.776Z,3.53
2018-08-06T11:49:08.121Z,3.90
2018-08-06T11:51:36.554Z,4.10
2018-08-06T11:54:04.921Z,3.87
2018-08-06T11:56:33.341Z,4.30
2018-08-06T11:59:01.666Z,4.00
2018-08-06T12:01:30.058Z,4.40
2018-08-06T12:03:58.389Z,4.47
2018-08-06T12:06:26.815Z,4.60
2018-08-06T12:08:59.721Z,5.00
2018-08-06T12:11:28.061Z,4.53
2018-08-06T12:13:56.412Z,4.17
2018-08-06T12:16:24.749Z,4.50
2018-08-06T12:18:53.089Z,4.17
2018-08-06T12:21:21.446Z,4.63
2018-08-06T12:23:49.781Z,4.60
2018-08-06T12:26:18.228Z,4.37
2018-08-06T12:28:46.537Z,4.33
2018-08-06T12:31:14.936Z,4.70
2018-08-06T12:33:43.252Z,4.27
2018-08-06T12:36:11.628Z,4.17
2018-08-06T12:38:47.067Z,3.90
2018-08-06T12:41:15.421Z,4.40
2018-08-06T12:43:43.779Z,4.53
2018-08-06T12:46:12.175Z,4.80
2018-08-06T12:48:40.298Z,4.73
2018-08-06T12:51:08.656Z,4.60
2018-08-06T12:53:37.064Z,5.10
2018-08-06T12:56:06.216Z,4.73
2018-08-06T12:58:34.569Z,4.80
2018-08-06T13:01:02.975Z,5.27
2018-08-06T13:03:31.300Z,4.73
2018-08-06T13:05:59.677Z,4.60
2018-08-06T13:08:28.022Z,4.67
2018-08-06T13:10:56.382Z,4.50
2018-08-06T13:13:25.540Z,5.00
2018-08-06T13:15:53.875Z,5.17
2018-08-06T13:18:22.210Z,4.97
2018-08-06T13:20:50.563Z,4.97
2018-08-06T13:23:19.223Z,4.87
2018-08-06T13:25:47.567Z,5.10
2018-08-06T13:28:15.927Z,5.40
2018-08-06T13:30:44.253Z,4.97
2018-08-06T13:33:12.594Z,5.20
2018-08-06T13:35:40.951Z,4.70
2018-08-06T13:38:09.341Z,4.13
2018-08-06T13:40:37.398Z,5.00
2018-08-06T13:43:05.769Z,4.80
2018-08-06T13:45:34.093Z,5.20
2018-08-06T13:48:02.473Z,4.80
2018-08-06T13:50:30.972Z,5.50
2018-08-06T13:52:59.318Z,5.12
2018-08-06T13:55:27.693Z,4.55
2018-08-06T13:57:56.010Z,5.00
2018-08-06T14:00:24.392Z,4.70
2018-08-06T14:02:52.759Z,4.60
2018-08-06T14:05:21.152Z,4.50
2018-08-06T14:07:49.957Z,5.25
2018-08-06T14:10:18.471Z,4.60
2018-08-06T14:12:46.905Z,4.65
2018-08-06T14:15:15.265Z,4.70
2018-08-06T14:17:44.056Z,4.90
2018-08-06T14:20:14.090Z,4.85
2018-08-06T14:22:42.503Z,4.87
2018-08-06T14:25:11.336Z,4.83
2018-08-06T14:27:39.709Z,4.75
2018-08-06T14:30:12.832Z,4.60
2018-08-06T14:32:41.941Z,5.15
2018-08-06T14:35:11.096Z,4.33
2018-08-06T14:37:39.483Z,4.65
2018-08-06T14:40:11.087Z,4.70
2018-08-06T14:42:39.426Z,4.90
2018-08-06T14:45:08.724Z,4.80
2018-08-06T14:47:37.171Z,5.55
2018-08-06T14:50:06.559Z,4.78
2018-08-06T14:52:34.621Z,11.00
2018-08-06T14:55:02.944Z,5.28
2018-08-06T14:57:36.991Z,4.72
2018-08-06T15:00:19.234Z,4.47
2018-08-06T15:02:48.074Z,4.12
2018-08-06T15:05:16.924Z,4.50
2018-08-06T15:07:45.464Z,4.28
2018-08-06T15:10:14.426Z,4.70
2018-08-06T15:12:42.855Z,4.33
2018-08-06T15:15:13.589Z,5.47
2018-08-06T15:17:42.414Z,4.70
2018-08-06T15:20:12.894Z,4.45
2018-08-06T15:22:41.299Z,4.58
2018-08-06T15:25:12.933Z,4.72
2018-08-06T15:27:41.700Z,4.55
2018-08-06T15:30:10.473Z,4.62
2018-08-06T15:32:38.975Z,4.97
2018-08-06T15:35:08.113Z,4.67
2018-08-06T15:37:36.935Z,4.70
2018-08-06T15:40:06.915Z,5.08
2018-08-06T15:42:35.362Z,4.67
2018-08-06T15:45:03.793Z,4.78
2018-08-06T15:47:32.151Z,5.05
2018-08-06T15:50:00.585Z,4.97
2018-08-06T15:52:28.990Z,4.97
2018-08-06T15:54:57.350Z,4.65
2018-08-06T15:57:25.845Z,4.67
2018-08-06T15:59:54.286Z,5.25
2018-08-06T16:02:22.761Z,5.60
2018-08-06T16:04:51.200Z,4.20
2018-08-06T16:07:19.233Z,4.70
2018-08-06T16:09:47.594Z,5.33
2018-08-06T16:12:16.067Z,4.30
2018-08-06T16:14:44.500Z,4.62
2018-08-06T16:17:12.863Z,4.50
2018-08-06T16:19:41.216Z,4.50
2018-08-06T16:22:09.570Z,4.33
2018-08-06T16:24:37.972Z,4.40
2018-08-06T16:27:06.355Z,4.75
2018-08-06T16:29:34.718Z,4.95
2018-08-06T16:32:03.169Z,4.40
2018-08-06T16:34:31.626Z,4.80
2018-08-06T16:37:00.214Z,4.28
2018-08-06T16:39:28.723Z,3.90
2018-08-06T16:41:57.181Z,4.65
2018-08-06T16:44:25.644Z,4.72
2018-08-06T16:46:54.178Z,4.37
2018-08-06T16:49:22.615Z,4.70
2018-08-06T16:51:50.998Z,4.28
2018-08-06T16:54:19.397Z,4.50
2018-08-06T16:56:47.729Z,4.12
2018-08-06T16:59:16.077Z,4.57
2018-08-06T17:01:44.441Z,3.93
2018-08-06T17:04:12.795Z,3.50
2018-08-06T17:06:41.177Z,4.07
2018-08-06T17:09:10.044Z,4.13
2018-08-06T17:11:38.401Z,4.17
2018-08-06T17:14:06.926Z,4.27
2018-08-06T17:16:35.257Z,4.13
2018-08-06T17:19:03.612Z,3.97
2018-08-06T17:21:31.962Z,3.93
2018-08-06T17:24:00.428Z,4.23
2018-08-06T17:26:28.997Z,3.77
2018-08-06T17:28:57.415Z,3.80
2018-08-06T17:31:25.725Z,3.60
2018-08-06T17:33:54.162Z,4.23
2018-08-06T17:36:22.544Z,3.70
2018-08-06T17:38:50.913Z,4.00
2018-08-06T17:41:19.295Z,4.40
2018-08-06T17:43:47.756Z,4.30
2018-08-06T17:46:16.212Z,3.87
2018-08-06T17:48:44.629Z,3.90
2018-08-06T17:51:13.320Z,4.37
2018-08-06T17:53:41.713Z,4.30
2018-08-06T17:56:10.051Z,4.07
2018-08-06T17:58:38.472Z,4.13
2018-08-06T18:01:07.509Z,4.83
2018-08-06T18:03:35.932Z,4.40
2018-08-06T18:06:03.979Z,4.43
2018-08-06T18:08:32.350Z,4.77
2018-08-06T18:11:00.744Z,4.40
2018-08-06T18:13:29.173Z,5.10
2018-08-06T18:15:57.537Z,5.00
2018-08-06T18:18:25.888Z,4.73
2018-08-06T18:20:54.374Z,4.70
2018-08-06T18:23:22.792Z,4.33
2018-08-06T18:25:51.133Z,5.10
2018-08-06T18:28:19.517Z,4.83
2018-08-06T18:30:47.852Z,4.63
2018-08-06T18:33:16.264Z,4.70
2018-08-06T18:35:44.634Z,4.70
2018-08-06T18:38:12.976Z,3.87
2018-08-06T18:40:41.362Z,4.50
2018-08-06T18:43:09.716Z,4.43
2018-08-06T18:45:38.061Z,4.47
2018-08-06T18:48:06.129Z,4.47
2018-08-06T18:50:34.484Z,4.17
2018-08-06T18:53:02.845Z,4.00
2018-08-06T18:55:31.250Z,4.50
2018-08-06T18:57:59.665Z,4.13
2018-08-06T19:00:28.036Z,4.20
2018-08-06T19:02:56.377Z,4.50
2018-08-06T19:05:24.808Z,4.90
2018-08-06T19:07:53.133Z,4.73
2018-08-06T19:10:21.519Z,4.80
2018-08-06T19:12:55.226Z,4.57
2018-08-06T19:15:23.533Z,4.67
2018-08-06T19:17:57.200Z,4.30
2018-08-06T19:20:25.599Z,5.27
2018-08-06T19:22:54.015Z,5.53
2018-08-06T19:25:26.026Z,4.93
2018-08-06T19:27:54.588Z,5.60
2018-08-06T19:30:27.179Z,4.30
2018-08-06T19:32:56.139Z,4.23
2018-08-06T19:35:24.476Z,4.50
2018-08-06T19:37:52.885Z,5.60
2018-08-06T19:40:21.265Z,5.37
2018-08-06T19:42:54.854Z,4.80
2018-08-06T19:45:23.360Z,4.97
2018-08-06T19:47:51.694Z,4.97
2018-08-06T19:50:25.502Z,4.90
2018-08-06T19:52:54.514Z,5.43
2018-08-06T19:55:28.766Z,5.00
2018-08-06T19:57:57.124Z,5.30
2018-08-06T20:00:25.491Z,5.17
2018-08-06T20:02:53.893Z,6.17
2018-08-06T20:05:22.272Z,6.27
2018-08-06T20:07:51.177Z,5.90
2018-08-06T20:10:19.589Z,6.13
2018-08-06T20:12:48.004Z,7.20
2018-08-06T20:15:18.290Z,5.90
2018-08-06T20:17:47.883Z,5.30
2018-08-06T20:20:16.369Z,4.80
2018-08-06T20:22:45.086Z,5.00
2018-08-06T20:25:16.946Z,4.90
2018-08-06T20:27:46.353Z,5.47
2018-08-06T20:30:16.073Z,5.00
2018-08-06T20:32:44.423Z,5.20
2018-08-06T20:35:14.427Z,5.83
2018-08-06T20:37:42.852Z,6.10
2018-08-06T20:40:11.148Z,5.13
2018-08-06T20:42:40.695Z,5.80
2018-08-06T20:45:12.261Z,5.17
2018-08-06T20:47:41.325Z,5.30
2018-08-06T20:50:13.340Z,5.17
2018-08-06T20:52:42.248Z,5.53
2018-08-06T20:55:11.258Z,5.10
2018-08-06T20:57:40.032Z,4.97
2018-08-06T21:00:15.710Z,5.57
2018-08-06T21:02:44.242Z,5.27
2018-08-06T21:05:12.576Z,7.07
2018-08-06T21:07:41.209Z,6.90
2018-08-06T21:10:11.324Z,7.50
2018-08-06T21:12:39.635Z,7.57
2018-08-06T21:15:08.751Z,6.90
2018-08-06T21:17:37.362Z,7.50
2018-08-06T21:20:07.601Z,6.70
2018-08-06T21:22:35.968Z,7.33
2018-08-06T21:25:05.336Z,7.20
2018-08-06T21:27:33.706Z,6.20
2018-08-06T21:30:02.101Z,5.57
2018-08-06T21:32:30.459Z,6.27
2018-08-06T21:34:58.769Z,6.37
2018-08-06T21:37:27.136Z,6.40
2018-08-06T21:39:55.512Z,7.27
2018-08-06T21:42:23.886Z,8.10
2018-08-06T21:44:52.290Z,7.27
2018-08-06T21:47:20.596Z,7.10
2018-08-06T21:49:48.962Z,6.40
2018-08-06T21:52:17.313Z,5.90
2018-08-06T21:54:45.654Z,5.87
2018-08-06T21:57:13.996Z,5.80
2018-08-06T21:59:42.345Z,5.60
2018-08-06T22:02:10.657Z,6.70
2018-08-06T22:04:39.010Z,6.10
2018-08-06T22:07:07.339Z,6.20
2018-08-06T22:09:35.834Z,6.57
2018-08-06T22:12:04.157Z,5.80
2018-08-06T22:14:32.485Z,5.87
2018-08-06T22:17:00.811Z,6.53
2018-08-06T22:19:29.130Z,6.80
2018-08-06T22:21:57.468Z,7.33
2018-08-06T22:24:25.828Z,7.57
2018-08-06T22:26:54.128Z,6.80
2018-08-06T22:29:22.505Z,6.47
2018-08-06T22:31:50.894Z,6.00
2018-08-06T22:34:19.245Z,5.67
2018-08-06T22:36:47.619Z,5.77
2018-08-06T22:39:16.709Z,6.33
2018-08-06T22:41:45.040Z,6.00
2018-08-06T22:44:13.380Z,5.57
2018-08-06T22:46:41.726Z,5.20
2018-08-06T22:49:10.048Z,6.43
2018-08-06T22:51:38.371Z,6.63
2018-08-06T22:54:06.760Z,5.73
2018-08-06T22:56:35.089Z,5.63
2018-08-06T22:59:03.420Z,6.10
2018-08-06T23:01:31.730Z,6.13
2018-08-06T23:04:00.085Z,6.70
2018-08-06T23:06:28.441Z,6.40
2018-08-06T23:08:56.892Z,6.10
2018-08-06T23:11:25.128Z,6.20
2018-08-06T23:13:53.438Z,6.20
2018-08-06T23:16:21.458Z,6.33
2018-08-06T23:18:49.839Z,5.67
2018-08-06T23:21:18.139Z,7.13
2018-08-06T23:23:46.493Z,7.33
2018-08-06T23:26:14.812Z,6.73
2018-08-06T23:28:43.134Z,6.37
2018-08-06T23:31:21.556Z,7.17
2018-08-06T23:33:49.877Z,6.67
2018-08-06T23:36:18.193Z,6.83
2018-08-06T23:38:47.015Z,6.27
2018-08-06T23:41:15.350Z,7.10
2018-08-06T23:43:43.675Z,6.10
2018-08-06T23:46:12.036Z,6.73
2018-08-06T23:48:40.371Z,7.10
2018-08-06T23:51:08.706Z,7.33
2018-08-06T23:53:37.026Z,7.23
2018-08-06T23:56:05.431Z,7.10
2018-08-06T23:58:33.756Z,7.80
